sensor_id;sensor_type;location;lat;lon;timestamp;pressure;altitude;pressure_sealevel;temperature;humidity
65384;BME280;51986;52.788;41.368;2023-02-18T00:00:29;99573.50;;;-2.98;54.27
65384;BME280;51986;52.788;41.368;2023-02-18T00:02:56;99556.44;;;-3.08;54.69
65384;BME280;51986;52.788;41.368;2023-02-18T00:05:23;99549.47;;;-2.99;54.82
65384;BME280;51986;52.788;41.368;2023-02-18T00:07:50;99549.00;;;-3.23;55.11
65384;BME280;51986;52.788;41.368;2023-02-18T00:10:17;99551.91;;;-3.02;55.39
65384;BME280;51986;52.788;41.368;2023-02-18T00:12:44;99558.69;;;-2.84;55.03
65384;BME280;51986;52.788;41.368;2023-02-18T00:15:12;99534.94;;;-2.95;54.71
65384;BME280;51986;52.788;41.368;2023-02-18T00:17:39;99536.69;;;-2.82;54.91
65384;BME280;51986;52.788;41.368;2023-02-18T00:20:06;99538.19;;;-2.81;54.21
65384;BME280;51986;52.788;41.368;2023-02-18T00:22:34;99521.25;;;-2.95;54.43
65384;BME280;51986;52.788;41.368;2023-02-18T00:25:01;99540.72;;;-2.89;54.64
65384;BME280;51986;52.788;41.368;2023-02-18T00:27:28;99542.09;;;-2.61;54.84
65384;BME280;51986;52.788;41.368;2023-02-18T00:29:57;99529.16;;;-2.69;54.34
65384;BME280;51986;52.788;41.368;2023-02-18T00:32:25;99532.97;;;-2.67;53.94
65384;BME280;51986;52.788;41.368;2023-02-18T00:34:52;99523.19;;;-2.78;54.27
65384;BME280;51986;52.788;41.368;2023-02-18T00:37:19;99516.91;;;-2.86;54.18
65384;BME280;51986;52.788;41.368;2023-02-18T00:39:46;99520.25;;;-2.86;54.28
65384;BME280;51986;52.788;41.368;2023-02-18T00:42:13;99525.03;;;-2.70;53.71
65384;BME280;51986;52.788;41.368;2023-02-18T00:44:40;99519.66;;;-2.83;54.47
65384;BME280;51986;52.788;41.368;2023-02-18T00:47:07;99509.97;;;-2.77;53.63
65384;BME280;51986;52.788;41.368;2023-02-18T00:49:34;99505.91;;;-2.69;54.33
65384;BME280;51986;52.788;41.368;2023-02-18T00:52:02;99504.72;;;-2.63;53.84
65384;BME280;51986;52.788;41.368;2023-02-18T00:54:29;99502.09;;;-2.72;53.68
65384;BME280;51986;52.788;41.368;2023-02-18T00:56:56;99497.69;;;-2.71;53.94
65384;BME280;51986;52.788;41.368;2023-02-18T00:59:24;99485.47;;;-2.88;54.46
65384;BME280;51986;52.788;41.368;2023-02-18T01:01:51;99500.28;;;-2.71;54.47
65384;BME280;51986;52.788;41.368;2023-02-18T01:04:19;99474.31;;;-2.66;54.27
65384;BME280;51986;52.788;41.368;2023-02-18T01:06:46;99482.41;;;-2.59;53.69
65384;BME280;51986;52.788;41.368;2023-02-18T01:09:13;99487.84;;;-2.69;54.21
65384;BME280;51986;52.788;41.368;2023-02-18T01:11:43;99482.69;;;-2.69;53.90
65384;BME280;51986;52.788;41.368;2023-02-18T01:14:10;99454.28;;;-2.69;54.04
65384;BME280;51986;52.788;41.368;2023-02-18T01:16:37;99472.66;;;-2.62;54.00
65384;BME280;51986;52.788;41.368;2023-02-18T01:19:07;99463.69;;;-2.73;54.31
65384;BME280;51986;52.788;41.368;2023-02-18T01:21:34;99476.75;;;-2.61;53.94
65384;BME280;51986;52.788;41.368;2023-02-18T01:24:01;99472.53;;;-2.57;53.63
65384;BME280;51986;52.788;41.368;2023-02-18T01:26:28;99463.53;;;-2.68;54.19
65384;BME280;51986;52.788;41.368;2023-02-18T01:28:54;99446.66;;;-2.66;53.53
65384;BME280;51986;52.788;41.368;2023-02-18T01:31:22;99463.81;;;-2.70;54.02
65384;BME280;51986;52.788;41.368;2023-02-18T01:33:49;99443.47;;;-2.71;54.00
65384;BME280;51986;52.788;41.368;2023-02-18T01:36:17;99445.19;;;-2.58;54.11
65384;BME280;51986;52.788;41.368;2023-02-18T01:38:44;99432.72;;;-2.56;53.51
65384;BME280;51986;52.788;41.368;2023-02-18T01:41:11;99453.09;;;-2.46;54.19
65384;BME280;51986;52.788;41.368;2023-02-18T01:43:38;99445.50;;;-2.51;53.75
65384;BME280;51986;52.788;41.368;2023-02-18T01:46:14;99442.78;;;-2.55;53.99
65384;BME280;51986;52.788;41.368;2023-02-18T01:51:42;99448.09;;;-2.51;54.39
65384;BME280;51986;52.788;41.368;2023-02-18T01:54:14;99450.34;;;-2.58;54.54
65384;BME280;51986;52.788;41.368;2023-02-18T01:57:05;99437.75;;;-2.51;54.33
65384;BME280;51986;52.788;41.368;2023-02-18T02:00:05;99436.41;;;-2.48;54.23
65384;BME280;51986;52.788;41.368;2023-02-18T02:02:43;99427.28;;;-2.46;54.07
65384;BME280;51986;52.788;41.368;2023-02-18T02:05:11;99393.97;;;-2.73;54.00
65384;BME280;51986;52.788;41.368;2023-02-18T02:07:40;99419.66;;;-2.60;53.68
65384;BME280;51986;52.788;41.368;2023-02-18T02:10:09;99440.31;;;-2.68;54.25
65384;BME280;51986;52.788;41.368;2023-02-18T02:13:06;99453.38;;;-2.65;54.51
65384;BME280;51986;52.788;41.368;2023-02-18T02:31:46;99397.09;;;-2.85;55.43
65384;BME280;51986;52.788;41.368;2023-02-18T02:37:17;99407.78;;;-2.61;55.32
65384;BME280;51986;52.788;41.368;2023-02-18T02:39:55;99410.88;;;-2.50;54.48
65384;BME280;51986;52.788;41.368;2023-02-18T02:42:34;99392.63;;;-2.54;54.19
65384;BME280;51986;52.788;41.368;2023-02-18T02:45:53;99408.13;;;-2.54;54.84
65384;BME280;51986;52.788;41.368;2023-02-18T02:51:34;99396.16;;;-2.41;54.81
65384;BME280;51986;52.788;41.368;2023-02-18T02:54:24;99389.75;;;-2.52;54.46
65384;BME280;51986;52.788;41.368;2023-02-18T03:00:14;99388.03;;;-2.74;55.18
65384;BME280;51986;52.788;41.368;2023-02-18T03:03:05;99401.56;;;-2.68;55.17
65384;BME280;51986;52.788;41.368;2023-02-18T03:11:05;99376.53;;;-2.59;54.72
65384;BME280;51986;52.788;41.368;2023-02-18T03:16:45;99366.50;;;-2.52;55.30
65384;BME280;51986;52.788;41.368;2023-02-18T03:19:32;99350.84;;;-2.64;55.22
65384;BME280;51986;52.788;41.368;2023-02-18T03:24:40;99361.63;;;-2.54;55.32
65384;BME280;51986;52.788;41.368;2023-02-18T03:27:23;99340.53;;;-2.47;54.69
65384;BME280;51986;52.788;41.368;2023-02-18T03:30:23;99331.56;;;-2.32;55.09
65384;BME280;51986;52.788;41.368;2023-02-18T03:32:57;99306.34;;;-2.35;54.34
65384;BME280;51986;52.788;41.368;2023-02-18T03:35:27;99328.97;;;-2.49;54.37
65384;BME280;51986;52.788;41.368;2023-02-18T03:38:08;99330.03;;;-2.42;54.88
65384;BME280;51986;52.788;41.368;2023-02-18T03:40:38;99308.91;;;-2.53;54.13
65384;BME280;51986;52.788;41.368;2023-02-18T03:43:05;99343.72;;;-2.50;54.72
65384;BME280;51986;52.788;41.368;2023-02-18T03:45:32;99330.19;;;-2.47;54.34
65384;BME280;51986;52.788;41.368;2023-02-18T03:47:59;99316.38;;;-2.42;54.52
65384;BME280;51986;52.788;41.368;2023-02-18T03:50:26;99322.59;;;-2.35;53.98
65384;BME280;51986;52.788;41.368;2023-02-18T03:52:53;99319.09;;;-2.56;54.45
65384;BME280;51986;52.788;41.368;2023-02-18T03:55:20;99299.50;;;-2.57;55.07
65384;BME280;51986;52.788;41.368;2023-02-18T03:57:47;99307.69;;;-2.38;54.81
65384;BME280;51986;52.788;41.368;2023-02-18T04:00:14;99309.53;;;-2.30;54.20
65384;BME280;51986;52.788;41.368;2023-02-18T04:02:41;99311.34;;;-2.39;53.67
65384;BME280;51986;52.788;41.368;2023-02-18T04:05:09;99317.72;;;-2.28;53.93
65384;BME280;51986;52.788;41.368;2023-02-18T04:07:36;99320.34;;;-2.36;54.39
65384;BME280;51986;52.788;41.368;2023-02-18T04:10:04;99303.88;;;-2.66;54.30
65384;BME280;51986;52.788;41.368;2023-02-18T04:12:32;99309.66;;;-2.61;55.11
65384;BME280;51986;52.788;41.368;2023-02-18T04:14:59;99288.22;;;-2.70;54.75
65384;BME280;51986;52.788;41.368;2023-02-18T04:17:26;99307.84;;;-2.69;54.74
65384;BME280;51986;52.788;41.368;2023-02-18T04:19:53;99296.28;;;-2.71;54.71
65384;BME280;51986;52.788;41.368;2023-02-18T04:22:20;99293.41;;;-2.53;54.67
65384;BME280;51986;52.788;41.368;2023-02-18T04:24:47;99302.25;;;-2.45;54.64
65384;BME280;51986;52.788;41.368;2023-02-18T04:27:14;99315.75;;;-2.57;54.70
65384;BME280;51986;52.788;41.368;2023-02-18T04:29:41;99290.69;;;-2.65;54.77
65384;BME280;51986;52.788;41.368;2023-02-18T04:32:08;99307.84;;;-2.43;54.75
65384;BME280;51986;52.788;41.368;2023-02-18T04:34:35;99305.44;;;-2.31;53.93
65384;BME280;51986;52.788;41.368;2023-02-18T04:37:02;99304.53;;;-2.35;54.15
65384;BME280;51986;52.788;41.368;2023-02-18T04:39:29;99299.63;;;-2.28;54.55
65384;BME280;51986;52.788;41.368;2023-02-18T04:41:56;99305.75;;;-2.41;53.98
65384;BME280;51986;52.788;41.368;2023-02-18T04:44:23;99294.03;;;-2.47;54.63
65384;BME280;51986;52.788;41.368;2023-02-18T04:46:50;99301.94;;;-2.52;54.65
65384;BME280;51986;52.788;41.368;2023-02-18T04:49:17;99292.66;;;-2.44;54.33
65384;BME280;51986;52.788;41.368;2023-02-18T04:51:44;99288.56;;;-2.54;54.08
65384;BME280;51986;52.788;41.368;2023-02-18T04:54:11;99283.25;;;-2.49;54.51
65384;BME280;51986;52.788;41.368;2023-02-18T04:56:38;99261.50;;;-2.57;54.44
65384;BME280;51986;52.788;41.368;2023-02-18T04:59:05;99277.47;;;-2.37;54.16
65384;BME280;51986;52.788;41.368;2023-02-18T05:01:32;99282.78;;;-2.34;54.30
65384;BME280;51986;52.788;41.368;2023-02-18T05:03:59;99283.09;;;-2.44;54.04
65384;BME280;51986;52.788;41.368;2023-02-18T05:06:26;99278.06;;;-2.32;54.07
65384;BME280;51986;52.788;41.368;2023-02-18T05:08:53;99287.03;;;-2.20;53.47
65384;BME280;51986;52.788;41.368;2023-02-18T05:11:20;99293.72;;;-2.19;53.49
65384;BME280;51986;52.788;41.368;2023-02-18T05:13:47;99294.47;;;-2.10;53.30
65384;BME280;51986;52.788;41.368;2023-02-18T05:16:14;99271.94;;;-2.01;53.23
65384;BME280;51986;52.788;41.368;2023-02-18T05:18:41;99281.19;;;-1.91;53.22
65384;BME280;51986;52.788;41.368;2023-02-18T05:21:08;99279.06;;;-1.98;53.18
65384;BME280;51986;52.788;41.368;2023-02-18T05:23:35;99271.28;;;-1.89;52.86
65384;BME280;51986;52.788;41.368;2023-02-18T05:26:02;99274.28;;;-1.70;52.59
65384;BME280;51986;52.788;41.368;2023-02-18T05:28:29;99281.13;;;-1.65;52.12
65384;BME280;51986;52.788;41.368;2023-02-18T05:30:56;99271.31;;;-1.51;52.40
65384;BME280;51986;52.788;41.368;2023-02-18T05:33:23;99262.06;;;-1.52;52.04
65384;BME280;51986;52.788;41.368;2023-02-18T05:35:50;99254.56;;;-1.45;51.47
65384;BME280;51986;52.788;41.368;2023-02-18T05:38:17;99252.47;;;-1.52;51.49
65384;BME280;51986;52.788;41.368;2023-02-18T05:40:44;99271.63;;;-1.44;51.47
65384;BME280;51986;52.788;41.368;2023-02-18T05:43:12;99250.63;;;-1.51;51.84
65384;BME280;51986;52.788;41.368;2023-02-18T05:45:39;99264.59;;;-1.43;51.43
65384;BME280;51986;52.788;41.368;2023-02-18T05:48:06;99251.16;;;-1.37;51.35
65384;BME280;51986;52.788;41.368;2023-02-18T05:50:33;99248.28;;;-1.35;51.71
65384;BME280;51986;52.788;41.368;2023-02-18T05:53:02;99273.91;;;-1.21;51.01
65384;BME280;51986;52.788;41.368;2023-02-18T05:55:29;99245.22;;;-1.08;50.73
65384;BME280;51986;52.788;41.368;2023-02-18T05:57:57;99240.38;;;-0.88;49.84
65384;BME280;51986;52.788;41.368;2023-02-18T06:00:24;99252.25;;;-0.87;49.55
65384;BME280;51986;52.788;41.368;2023-02-18T06:02:50;99240.50;;;-0.85;49.59
65384;BME280;51986;52.788;41.368;2023-02-18T06:05:17;99250.63;;;-0.92;49.92
65384;BME280;51986;52.788;41.368;2023-02-18T06:07:45;99254.66;;;-0.82;49.68
65384;BME280;51986;52.788;41.368;2023-02-18T06:10:11;99249.72;;;-0.75;49.21
65384;BME280;51986;52.788;41.368;2023-02-18T06:12:39;99250.03;;;-0.77;49.58
65384;BME280;51986;52.788;41.368;2023-02-18T06:15:06;99240.63;;;-0.81;49.97
65384;BME280;51986;52.788;41.368;2023-02-18T06:17:33;99261.47;;;-0.78;49.57
65384;BME280;51986;52.788;41.368;2023-02-18T06:20:00;99253.88;;;-0.62;49.23
65384;BME280;51986;52.788;41.368;2023-02-18T06:22:28;99249.78;;;-0.63;49.16
65384;BME280;51986;52.788;41.368;2023-02-18T06:24:55;99241.81;;;-0.58;49.39
65384;BME280;51986;52.788;41.368;2023-02-18T06:27:22;99233.69;;;-0.68;49.23
65384;BME280;51986;52.788;41.368;2023-02-18T06:29:49;99229.22;;;-0.47;49.22
65384;BME280;51986;52.788;41.368;2023-02-18T06:32:16;99232.78;;;-0.52;48.75
65384;BME280;51986;52.788;41.368;2023-02-18T06:34:43;99237.69;;;-0.38;48.38
65384;BME280;51986;52.788;41.368;2023-02-18T06:37:10;99240.53;;;-0.52;49.14
65384;BME280;51986;52.788;41.368;2023-02-18T06:39:38;99211.50;;;-0.45;49.03
65384;BME280;51986;52.788;41.368;2023-02-18T06:42:05;99206.22;;;-0.15;48.30
65384;BME280;51986;52.788;41.368;2023-02-18T06:44:33;99213.16;;;0.05;48.25
65384;BME280;51986;52.788;41.368;2023-02-18T06:47:03;99193.28;;;0.09;47.78
65384;BME280;51986;52.788;41.368;2023-02-18T06:49:30;99226.44;;;0.03;47.41
65384;BME280;51986;52.788;41.368;2023-02-18T06:51:57;99198.78;;;-0.05;47.63
65384;BME280;51986;52.788;41.368;2023-02-18T06:54:24;99199.53;;;-0.04;47.24
65384;BME280;51986;52.788;41.368;2023-02-18T06:56:51;99195.00;;;0.17;46.85
65384;BME280;51986;52.788;41.368;2023-02-18T06:59:18;99187.53;;;0.16;46.50
65384;BME280;51986;52.788;41.368;2023-02-18T07:01:45;99183.84;;;0.53;46.28
65384;BME280;51986;52.788;41.368;2023-02-18T07:04:12;99198.41;;;0.70;45.81
65384;BME280;51986;52.788;41.368;2023-02-18T07:06:39;99215.91;;;0.98;45.58
65384;BME280;51986;52.788;41.368;2023-02-18T07:09:06;99176.63;;;0.99;44.53
65384;BME280;51986;52.788;41.368;2023-02-18T07:11:33;99163.84;;;1.22;44.68
65384;BME280;51986;52.788;41.368;2023-02-18T07:14:00;99163.53;;;1.52;43.45
65384;BME280;51986;52.788;41.368;2023-02-18T07:16:27;99154.03;;;2.07;42.83
65384;BME280;51986;52.788;41.368;2023-02-18T07:18:54;99167.78;;;2.23;42.34
65384;BME280;51986;52.788;41.368;2023-02-18T07:21:21;99142.09;;;2.22;41.19
65384;BME280;51986;52.788;41.368;2023-02-18T07:23:48;99143.56;;;2.74;41.71
65384;BME280;51986;52.788;41.368;2023-02-18T07:26:15;99154.81;;;2.43;40.99
65384;BME280;51986;52.788;41.368;2023-02-18T07:28:42;99138.28;;;2.70;40.44
65384;BME280;51986;52.788;41.368;2023-02-18T07:31:10;99129.31;;;3.06;39.41
65384;BME280;51986;52.788;41.368;2023-02-18T07:33:37;99162.19;;;2.76;40.67
65384;BME280;51986;52.788;41.368;2023-02-18T07:36:05;99122.09;;;3.00;39.89
65384;BME280;51986;52.788;41.368;2023-02-18T07:38:32;99121.09;;;3.27;39.99
65384;BME280;51986;52.788;41.368;2023-02-18T07:40:59;99122.28;;;3.30;39.09
65384;BME280;51986;52.788;41.368;2023-02-18T07:43:26;99126.44;;;3.57;38.69
65384;BME280;51986;52.788;41.368;2023-02-18T07:45:53;99112.72;;;3.60;38.67
65384;BME280;51986;52.788;41.368;2023-02-18T07:48:21;99117.47;;;3.55;38.50
65384;BME280;51986;52.788;41.368;2023-02-18T07:50:48;99104.16;;;3.86;37.69
65384;BME280;51986;52.788;41.368;2023-02-18T07:53:15;99110.78;;;3.80;37.98
65384;BME280;51986;52.788;41.368;2023-02-18T07:55:43;99097.75;;;3.57;37.53
65384;BME280;51986;52.788;41.368;2023-02-18T07:58:10;99101.13;;;3.58;37.86
65384;BME280;51986;52.788;41.368;2023-02-18T08:00:37;99098.78;;;3.07;37.89
65384;BME280;51986;52.788;41.368;2023-02-18T08:03:04;99090.63;;;2.50;38.81
65384;BME280;51986;52.788;41.368;2023-02-18T08:05:31;99119.34;;;2.19;39.00
65384;BME280;51986;52.788;41.368;2023-02-18T08:07:58;99076.94;;;2.34;39.45
65384;BME280;51986;52.788;41.368;2023-02-18T08:10:25;99101.59;;;2.40;39.49
65384;BME280;51986;52.788;41.368;2023-02-18T08:12:52;99087.00;;;2.74;38.55
65384;BME280;51986;52.788;41.368;2023-02-18T08:15:19;99098.09;;;2.91;38.57
65384;BME280;51986;52.788;41.368;2023-02-18T08:17:47;99083.44;;;2.82;38.64
65384;BME280;51986;52.788;41.368;2023-02-18T08:20:14;99080.56;;;2.68;38.61
65384;BME280;51986;52.788;41.368;2023-02-18T08:22:41;99088.13;;;2.19;38.98
65384;BME280;51986;52.788;41.368;2023-02-18T08:25:08;99103.50;;;2.08;39.82
65384;BME280;51986;52.788;41.368;2023-02-18T08:27:53;99072.75;;;2.49;39.19
65384;BME280;51986;52.788;41.368;2023-02-18T08:30:20;99065.06;;;2.75;38.35
65384;BME280;51986;52.788;41.368;2023-02-18T08:32:47;99102.50;;;2.67;38.78
65384;BME280;51986;52.788;41.368;2023-02-18T08:35:14;99055.56;;;2.64;38.85
65384;BME280;51986;52.788;41.368;2023-02-18T08:37:41;99077.16;;;2.64;38.95
65384;BME280;51986;52.788;41.368;2023-02-18T08:40:19;99064.78;;;2.80;38.32
65384;BME280;51986;52.788;41.368;2023-02-18T08:42:46;99055.13;;;2.61;38.61
65384;BME280;51986;52.788;41.368;2023-02-18T08:45:14;99030.19;;;2.60;38.51
65384;BME280;51986;52.788;41.368;2023-02-18T08:47:41;99039.31;;;2.31;38.65
65384;BME280;51986;52.788;41.368;2023-02-18T08:50:28;99030.75;;;2.12;38.99
65384;BME280;51986;52.788;41.368;2023-02-18T08:52:55;99038.50;;;1.57;39.76
65384;BME280;51986;52.788;41.368;2023-02-18T08:55:23;99048.47;;;1.39;40.87
65384;BME280;51986;52.788;41.368;2023-02-18T08:57:50;99046.25;;;1.73;40.12
65384;BME280;51986;52.788;41.368;2023-02-18T09:00:19;99039.44;;;1.84;39.84
65384;BME280;51986;52.788;41.368;2023-02-18T09:02:47;99016.69;;;1.62;39.92
65384;BME280;51986;52.788;41.368;2023-02-18T09:05:14;99003.72;;;1.65;39.87
65384;BME280;51986;52.788;41.368;2023-02-18T09:07:41;99030.16;;;1.51;40.36
65384;BME280;51986;52.788;41.368;2023-02-18T09:10:09;98993.09;;;1.90;40.42
65384;BME280;51986;52.788;41.368;2023-02-18T09:12:37;99013.56;;;1.40;40.20
65384;BME280;51986;52.788;41.368;2023-02-18T09:15:04;98974.94;;;0.91;41.80
65384;BME280;51986;52.788;41.368;2023-02-18T09:17:31;99016.50;;;1.07;41.35
65384;BME280;51986;52.788;41.368;2023-02-18T09:19:59;98989.13;;;1.10;41.47
65384;BME280;51986;52.788;41.368;2023-02-18T09:22:26;99005.63;;;1.17;41.53
65384;BME280;51986;52.788;41.368;2023-02-18T09:24:53;98999.84;;;1.24;41.08
65384;BME280;51986;52.788;41.368;2023-02-18T09:27:20;98976.53;;;1.43;41.12
65384;BME280;51986;52.788;41.368;2023-02-18T09:29:50;98983.78;;;1.69;40.78
65384;BME280;51986;52.788;41.368;2023-02-18T09:32:19;98975.56;;;1.67;40.27
65384;BME280;51986;52.788;41.368;2023-02-18T09:34:59;98952.75;;;1.96;39.67
65384;BME280;51986;52.788;41.368;2023-02-18T09:37:26;98956.03;;;1.57;40.01
65384;BME280;51986;52.788;41.368;2023-02-18T09:39:54;98941.50;;;1.92;39.63
65384;BME280;51986;52.788;41.368;2023-02-18T09:42:28;98953.47;;;1.42;40.42
65384;BME280;51986;52.788;41.368;2023-02-18T09:45:00;98946.34;;;1.74;39.72
65384;BME280;51986;52.788;41.368;2023-02-18T09:47:34;98940.44;;;1.57;40.47
65384;BME280;51986;52.788;41.368;2023-02-18T09:50:27;98930.00;;;2.12;39.75
65384;BME280;51986;52.788;41.368;2023-02-18T09:52:58;98902.34;;;1.84;39.43
65384;BME280;51986;52.788;41.368;2023-02-18T09:55:32;98920.84;;;1.99;39.92
65384;BME280;51986;52.788;41.368;2023-02-18T09:58:02;98917.09;;;1.96;39.27
65384;BME280;51986;52.788;41.368;2023-02-18T10:00:39;98920.34;;;1.74;39.96
65384;BME280;51986;52.788;41.368;2023-02-18T10:03:12;98904.56;;;2.02;39.27
65384;BME280;51986;52.788;41.368;2023-02-18T10:06:03;98906.47;;;2.05;38.77
65384;BME280;51986;52.788;41.368;2023-02-18T10:08:35;98904.34;;;2.10;38.92
65384;BME280;51986;52.788;41.368;2023-02-18T10:11:03;98904.59;;;2.25;38.25
65384;BME280;51986;52.788;41.368;2023-02-18T10:13:32;98896.31;;;2.19;38.95
65384;BME280;51986;52.788;41.368;2023-02-18T10:16:00;98885.91;;;2.19;38.54
65384;BME280;51986;52.788;41.368;2023-02-18T10:18:35;98885.78;;;2.12;38.18
65384;BME280;51986;52.788;41.368;2023-02-18T10:21:09;98887.88;;;2.26;38.31
65384;BME280;51986;52.788;41.368;2023-02-18T10:23:40;98898.38;;;2.10;38.81
65384;BME280;51986;52.788;41.368;2023-02-18T10:26:16;98900.19;;;1.87;38.81
65384;BME280;51986;52.788;41.368;2023-02-18T10:28:44;98883.53;;;1.72;39.30
65384;BME280;51986;52.788;41.368;2023-02-18T10:31:51;98881.97;;;1.67;39.86
65384;BME280;51986;52.788;41.368;2023-02-18T10:42:51;98852.00;;;1.19;40.47
65384;BME280;51986;52.788;41.368;2023-02-18T10:50:45;98817.56;;;0.39;41.58
65384;BME280;51986;52.788;41.368;2023-02-18T10:55:50;98838.25;;;0.51;41.82
65384;BME280;51986;52.788;41.368;2023-02-18T10:58:57;98824.59;;;0.39;42.11
65384;BME280;51986;52.788;41.368;2023-02-18T11:01:28;98810.53;;;0.55;41.61
65384;BME280;51986;52.788;41.368;2023-02-18T11:06:44;98814.34;;;-0.02;42.87
65384;BME280;51986;52.788;41.368;2023-02-18T11:12:09;98813.38;;;0.19;42.67
65384;BME280;51986;52.788;41.368;2023-02-18T11:14:42;98805.09;;;0.13;42.77
65384;BME280;51986;52.788;41.368;2023-02-18T11:17:25;98762.41;;;-0.05;42.37
65384;BME280;51986;52.788;41.368;2023-02-18T11:19:57;98801.84;;;-0.12;41.93
65384;BME280;51986;52.788;41.368;2023-02-18T11:22:32;98816.59;;;-0.56;43.04
65384;BME280;51986;52.788;41.368;2023-02-18T11:25:02;98794.78;;;-0.95;44.37
65384;BME280;51986;52.788;41.368;2023-02-18T11:27:43;98793.72;;;-0.54;43.88
65384;BME280;51986;52.788;41.368;2023-02-18T11:30:36;98804.13;;;-0.38;44.54
65384;BME280;51986;52.788;41.368;2023-02-18T11:35:55;98800.66;;;-0.70;44.98
65384;BME280;51986;52.788;41.368;2023-02-18T11:38:27;98781.66;;;-0.62;44.66
65384;BME280;51986;52.788;41.368;2023-02-18T11:40:59;98790.66;;;-0.84;44.70
65384;BME280;51986;52.788;41.368;2023-02-18T11:43:31;98787.69;;;-1.11;45.41
65384;BME280;51986;52.788;41.368;2023-02-18T11:46:16;98794.47;;;-1.55;46.51
65384;BME280;51986;52.788;41.368;2023-02-18T11:48:45;98777.13;;;-1.42;46.22
65384;BME280;51986;52.788;41.368;2023-02-18T11:51:19;98799.13;;;-1.48;46.92
65384;BME280;51986;52.788;41.368;2023-02-18T11:56:24;98782.50;;;-1.72;46.90
65384;BME280;51986;52.788;41.368;2023-02-18T11:58:51;98740.47;;;-1.93;47.69
65384;BME280;51986;52.788;41.368;2023-02-18T12:09:37;98750.19;;;-1.54;47.06
65384;BME280;51986;52.788;41.368;2023-02-18T12:14:40;98743.84;;;-1.68;47.17
65384;BME280;51986;52.788;41.368;2023-02-18T12:28:32;98702.44;;;-1.56;47.11
65384;BME280;51986;52.788;41.368;2023-02-18T12:36:30;98717.88;;;-1.72;47.06
65384;BME280;51986;52.788;41.368;2023-02-18T12:39:08;98707.63;;;-1.93;48.17
65384;BME280;51986;52.788;41.368;2023-02-18T12:41:51;98694.16;;;-2.11;47.81
65384;BME280;51986;52.788;41.368;2023-02-18T12:56:24;98707.41;;;-2.78;49.75
65384;BME280;51986;52.788;41.368;2023-02-18T13:04:36;98687.47;;;-3.11;50.15
65384;BME280;51986;52.788;41.368;2023-02-18T13:12:49;98669.47;;;-3.20;50.69
65384;BME280;51986;52.788;41.368;2023-02-18T13:15:40;98669.22;;;-3.27;50.82
65384;BME280;51986;52.788;41.368;2023-02-18T13:18:12;98671.50;;;-3.25;51.07
65384;BME280;51986;52.788;41.368;2023-02-18T13:20:45;98652.63;;;-3.17;50.06
65384;BME280;51986;52.788;41.368;2023-02-18T13:23:18;98650.72;;;-3.08;50.02
65384;BME280;51986;52.788;41.368;2023-02-18T13:25:48;98649.34;;;-3.26;51.02
65384;BME280;51986;52.788;41.368;2023-02-18T13:31:21;98637.78;;;-3.41;51.21
65384;BME280;51986;52.788;41.368;2023-02-18T13:33:59;98635.91;;;-3.83;51.58
65384;BME280;51986;52.788;41.368;2023-02-18T13:36:42;98620.56;;;-3.79;52.05
65384;BME280;51986;52.788;41.368;2023-02-18T13:39:17;98614.53;;;-3.62;51.65
65384;BME280;51986;52.788;41.368;2023-02-18T13:41:47;98634.19;;;-3.49;51.51
65384;BME280;51986;52.788;41.368;2023-02-18T13:46:52;98623.19;;;-3.88;52.45
65384;BME280;51986;52.788;41.368;2023-02-18T13:49:22;98583.56;;;-4.04;52.78
65384;BME280;51986;52.788;41.368;2023-02-18T13:51:54;98623.25;;;-3.75;52.43
65384;BME280;51986;52.788;41.368;2023-02-18T13:54:31;98599.44;;;-3.93;52.67
65384;BME280;51986;52.788;41.368;2023-02-18T13:57:03;98625.97;;;-4.01;53.69
65384;BME280;51986;52.788;41.368;2023-02-18T13:59:44;98606.66;;;-4.16;53.80
65384;BME280;51986;52.788;41.368;2023-02-18T14:04:54;98605.19;;;-4.26;53.95
65384;BME280;51986;52.788;41.368;2023-02-18T14:10:06;98608.97;;;-4.70;54.97
65384;BME280;51986;52.788;41.368;2023-02-18T14:20:29;98599.53;;;-4.57;54.50
65384;BME280;51986;52.788;41.368;2023-02-18T14:22:58;98580.00;;;-4.50;55.16
65384;BME280;51986;52.788;41.368;2023-02-18T14:25:38;98579.56;;;-4.22;54.40
65384;BME280;51986;52.788;41.368;2023-02-18T14:39:44;98549.84;;;-4.49;56.46
65384;BME280;51986;52.788;41.368;2023-02-18T14:42:41;98566.59;;;-4.35;55.11
65384;BME280;51986;52.788;41.368;2023-02-18T14:48:21;98554.44;;;-4.25;55.71
65384;BME280;51986;52.788;41.368;2023-02-18T14:50:52;98548.03;;;-4.19;55.58
65384;BME280;51986;52.788;41.368;2023-02-18T14:53:22;98545.91;;;-4.47;56.12
65384;BME280;51986;52.788;41.368;2023-02-18T14:56:12;98546.06;;;-4.52;56.53
65384;BME280;51986;52.788;41.368;2023-02-18T14:58:53;98515.25;;;-4.69;56.15
65384;BME280;51986;52.788;41.368;2023-02-18T15:01:32;98543.38;;;-4.55;55.35
65384;BME280;51986;52.788;41.368;2023-02-18T15:04:01;98523.13;;;-4.66;55.97
65384;BME280;51986;52.788;41.368;2023-02-18T15:08:59;98513.13;;;-4.67;56.26
65384;BME280;51986;52.788;41.368;2023-02-18T15:11:49;98514.56;;;-4.87;56.47
65384;BME280;51986;52.788;41.368;2023-02-18T15:14:20;98482.81;;;-5.00;56.01
65384;BME280;51986;52.788;41.368;2023-02-18T15:16:50;98504.00;;;-4.94;56.23
65384;BME280;51986;52.788;41.368;2023-02-18T15:19:21;98474.78;;;-4.90;56.01
65384;BME280;51986;52.788;41.368;2023-02-18T15:21:52;98489.97;;;-5.14;56.60
65384;BME280;51986;52.788;41.368;2023-02-18T15:24:36;98498.75;;;-5.15;57.27
65384;BME280;51986;52.788;41.368;2023-02-18T15:27:15;98489.03;;;-5.01;56.96
65384;BME280;51986;52.788;41.368;2023-02-18T15:29:44;98478.47;;;-5.08;56.76
65384;BME280;51986;52.788;41.368;2023-02-18T15:32:27;98464.66;;;-5.50;57.24
65384;BME280;51986;52.788;41.368;2023-02-18T15:35:11;98471.84;;;-5.09;57.19
65384;BME280;51986;52.788;41.368;2023-02-18T15:37:43;98492.72;;;-5.19;56.84
65384;BME280;51986;52.788;41.368;2023-02-18T15:40:15;98468.06;;;-5.20;57.73
65384;BME280;51986;52.788;41.368;2023-02-18T15:42:45;98465.50;;;-5.29;57.69
65384;BME280;51986;52.788;41.368;2023-02-18T15:47:43;98480.50;;;-5.48;58.30